createdAt,value
2022-12-23T00:01:28.344Z,66.27
2022-12-23T00:03:59.928Z,64.79
2022-12-23T00:06:27.998Z,63.44
2022-12-23T00:08:59.085Z,61.94
2022-12-23T00:11:29.117Z,61.54
2022-12-23T00:14:21.044Z,61.73
2022-12-23T00:16:51.242Z,61.39
2022-12-23T00:19:19.775Z,61.35
2022-12-23T00:21:48.740Z,61.23
2022-12-23T00:24:16.778Z,60.80
2022-12-23T00:26:44.942Z,60.48
2022-12-23T00:29:12.916Z,59.96
2022-12-23T00:31:40.885Z,58.49
2022-12-23T00:34:12.218Z,58.83
2022-12-23T00:36:41.041Z,59.43
2022-12-23T00:39:31.646Z,63.78
2022-12-23T00:42:18.292Z,66.87
2022-12-23T00:44:46.156Z,65.81
2022-12-23T00:47:34.042Z,64.07
2022-12-23T00:50:02.079Z,63.00
2022-12-23T00:52:30.009Z,62.89
2022-12-23T00:54:57.816Z,62.95
2022-12-23T00:57:25.660Z,62.69
2022-12-23T00:59:53.463Z,62.66
2022-12-23T01:02:40.187Z,63.12
2022-12-23T01:05:30.293Z,62.41
2022-12-23T01:07:58.162Z,62.53
2022-12-23T01:10:26.008Z,62.62
2022-12-23T01:12:53.836Z,62.83
2022-12-23T01:15:21.684Z,63.62
2022-12-23T01:17:49.516Z,62.89
2022-12-23T01:20:17.484Z,62.84
2022-12-23T01:22:45.332Z,63.14
2022-12-23T01:25:13.743Z,63.42
2022-12-23T01:27:41.539Z,63.49
2022-12-23T01:30:10.300Z,63.38
2022-12-23T01:32:38.132Z,63.36
2022-12-23T01:35:06.193Z,63.05
2022-12-23T01:37:34.162Z,62.89
2022-12-23T01:40:02.029Z,62.47
2022-12-23T01:42:45.350Z,62.48
2022-12-23T01:45:30.152Z,62.43
2022-12-23T01:48:05.564Z,62.59
2022-12-23T01:50:38.694Z,62.51
2022-12-23T01:53:22.165Z,63.02
2022-12-23T01:55:56.388Z,62.61
2022-12-23T01:58:34.357Z,62.33
2022-12-23T02:01:21.805Z,62.42
2022-12-23T02:03:54.487Z,62.65
2022-12-23T02:06:46.518Z,63.07
2022-12-23T02:09:22.986Z,63.52
2022-12-23T02:12:32.543Z,63.51
2022-12-23T02:15:46.720Z,63.52
2022-12-23T02:18:38.399Z,63.50
2022-12-23T02:21:13.035Z,63.22
2022-12-23T02:24:16.324Z,63.05
2022-12-23T02:27:13.820Z,63.75
2022-12-23T02:30:50.244Z,64.10
2022-12-23T02:33:26.927Z,64.09
2022-12-23T02:36:26.348Z,63.82
2022-12-23T02:39:14.401Z,63.25
2022-12-23T02:42:02.427Z,63.25
2022-12-23T02:44:41.629Z,63.41
2022-12-23T02:47:28.950Z,63.38
2022-12-23T02:50:06.316Z,63.21
2022-12-23T02:52:39.146Z,63.38
2022-12-23T02:55:14.589Z,63.16
2022-12-23T02:57:48.559Z,62.66
2022-12-23T03:00:18.424Z,62.94
2022-12-23T03:02:47.338Z,62.92
2022-12-23T03:05:39.288Z,63.38
2022-12-23T03:08:18.827Z,63.60
2022-12-23T03:11:06.642Z,63.71
2022-12-23T03:14:06.051Z,63.69
2022-12-23T03:16:56.856Z,64.54
2022-12-23T03:19:55.938Z,64.45
2022-12-23T03:22:43.291Z,64.03
2022-12-23T03:25:23.504Z,63.68
2022-12-23T03:28:44.504Z,63.80
2022-12-23T03:31:20.524Z,63.56
2022-12-23T03:33:57.347Z,63.59
2022-12-23T03:36:34.670Z,63.08
2022-12-23T03:39:07.240Z,63.07
2022-12-23T03:41:44.757Z,63.00
2022-12-23T03:44:26.984Z,62.87
2022-12-23T03:47:12.104Z,63.47
2022-12-23T03:50:04.424Z,63.41
2022-12-23T03:52:44.024Z,62.72
2022-12-23T03:55:22.413Z,63.31
2022-12-23T03:58:14.550Z,62.91
2022-12-23T04:00:57.870Z,63.10
2022-12-23T04:03:43.066Z,63.35
2022-12-23T04:06:17.649Z,63.58
2022-12-23T04:08:49.041Z,62.83
2022-12-23T04:11:17.401Z,62.58
2022-12-23T04:13:48.464Z,62.23
2022-12-23T04:16:16.820Z,62.11
2022-12-23T04:18:44.807Z,61.95
2022-12-23T04:21:12.770Z,61.93
2022-12-23T04:23:40.689Z,61.60
2022-12-23T04:26:08.553Z,61.39
2022-12-23T04:28:36.423Z,62.19
2022-12-23T04:31:04.576Z,62.19
2022-12-23T04:33:32.453Z,62.23
2022-12-23T04:36:01.111Z,62.62
2022-12-23T04:38:28.966Z,62.92
2022-12-23T04:40:56.806Z,62.30
2022-12-23T04:43:24.706Z,61.83
2022-12-23T04:45:52.953Z,61.76
2022-12-23T04:48:20.927Z,61.70
2022-12-23T04:50:48.795Z,62.29
2022-12-23T04:53:16.781Z,62.37
2022-12-23T04:55:44.590Z,62.35
2022-12-23T04:58:12.359Z,62.66
2022-12-23T05:00:40.318Z,62.78
2022-12-23T05:03:08.501Z,62.77
2022-12-23T05:05:36.532Z,62.57
2022-12-23T05:08:06.033Z,62.60
2022-12-23T05:10:33.859Z,62.49
2022-12-23T05:13:01.699Z,62.50
2022-12-23T05:15:33.183Z,62.53
2022-12-23T05:18:01.090Z,62.36
2022-12-23T05:20:28.954Z,62.80
2022-12-23T05:22:56.777Z,62.59
2022-12-23T05:25:24.556Z,62.76
2022-12-23T05:27:52.413Z,63.11
2022-12-23T05:30:20.360Z,62.84
2022-12-23T05:32:48.192Z,62.71
2022-12-23T05:35:16.195Z,63.31
2022-12-23T05:37:44.139Z,63.15
2022-12-23T05:40:12.344Z,63.21
2022-12-23T05:42:40.499Z,63.00
2022-12-23T05:45:09.819Z,62.60
2022-12-23T05:47:37.988Z,62.47
2022-12-23T05:50:06.997Z,62.14
2022-12-23T05:52:34.922Z,61.87
2022-12-23T05:55:03.004Z,62.00
2022-12-23T05:57:32.315Z,61.89
2022-12-23T06:00:00.145Z,62.85
2022-12-23T06:02:28.096Z,63.40
2022-12-23T06:04:56.038Z,63.46
2022-12-23T06:07:23.920Z,63.74
2022-12-23T06:09:51.740Z,64.11
2022-12-23T06:12:19.546Z,64.46
2022-12-23T06:14:47.692Z,64.58
2022-12-23T06:17:15.499Z,64.67
2022-12-23T06:19:43.474Z,64.32
2022-12-23T06:22:11.380Z,64.21
2022-12-23T06:24:39.288Z,64.61
2022-12-23T06:27:07.269Z,64.93
2022-12-23T06:29:35.090Z,64.86
2022-12-23T06:32:03.325Z,64.80
2022-12-23T06:34:31.724Z,64.78
2022-12-23T06:36:59.856Z,64.74
2022-12-23T06:39:28.295Z,64.56
2022-12-23T06:41:56.103Z,64.63
2022-12-23T06:44:24.247Z,64.59
2022-12-23T06:46:52.299Z,64.56
2022-12-23T06:49:20.136Z,64.62
2022-12-23T06:51:47.987Z,63.98
2022-12-23T06:54:15.804Z,64.28
2022-12-23T06:56:43.594Z,64.40
2022-12-23T06:59:12.160Z,64.56
2022-12-23T07:01:40.805Z,64.65
2022-12-23T07:04:08.980Z,64.76
2022-12-23T07:06:36.889Z,65.03
2022-12-23T07:09:04.970Z,65.41
2022-12-23T07:11:34.155Z,64.56
2022-12-23T07:14:03.556Z,63.33
2022-12-23T07:16:31.521Z,63.09
2022-12-23T07:18:59.506Z,62.98
2022-12-23T07:21:29.706Z,62.59
2022-12-23T07:23:58.079Z,62.25
2022-12-23T07:26:25.945Z,62.64
2022-12-23T07:28:53.845Z,62.75
2022-12-23T07:31:21.892Z,63.15
2022-12-23T07:33:49.728Z,63.51
2022-12-23T07:36:17.942Z,64.03
2022-12-23T07:38:51.254Z,63.49
2022-12-23T07:41:19.800Z,63.37
2022-12-23T07:43:48.035Z,62.82
2022-12-23T07:46:16.161Z,62.14
2022-12-23T07:48:44.417Z,62.68
2022-12-23T07:51:12.313Z,63.36
2022-12-23T07:53:40.177Z,62.69
2022-12-23T07:56:08.560Z,62.76
2022-12-23T07:58:36.383Z,63.24
2022-12-23T08:01:08.192Z,63.00
2022-12-23T08:03:37.253Z,62.58
2022-12-23T08:06:09.708Z,62.40
2022-12-23T08:08:37.974Z,62.89
2022-12-23T08:11:09.339Z,62.51
2022-12-23T08:13:40.551Z,62.64
2022-12-23T08:16:10.001Z,62.81
2022-12-23T08:18:40.795Z,62.60
2022-12-23T08:21:15.527Z,63.27
2022-12-23T08:23:44.154Z,63.09
2022-12-23T08:26:14.648Z,63.23
2022-12-23T08:28:44.270Z,62.71
2022-12-23T08:31:18.656Z,62.84
2022-12-23T08:33:50.732Z,63.17
2022-12-23T08:36:23.804Z,63.59
2022-12-23T08:38:55.842Z,63.19
2022-12-23T08:41:31.069Z,62.44
2022-12-23T08:43:59.241Z,62.63
2022-12-23T08:46:28.461Z,62.61
2022-12-23T08:48:56.400Z,62.26
2022-12-23T08:51:27.062Z,62.19
2022-12-23T08:54:00.492Z,62.08
2022-12-23T08:56:36.362Z,62.37
2022-12-23T08:59:04.720Z,62.76
2022-12-23T09:01:35.385Z,62.34
2022-12-23T09:04:05.596Z,62.06
2022-12-23T09:06:38.953Z,62.13
2022-12-23T09:09:08.864Z,62.17
2022-12-23T09:11:38.035Z,61.62
2022-12-23T09:14:08.741Z,61.56
2022-12-23T09:16:39.677Z,62.17
2022-12-23T09:19:08.071Z,62.96
2022-12-23T09:21:36.075Z,63.13
2022-12-23T09:24:04.280Z,62.65
2022-12-23T09:26:32.855Z,62.92
2022-12-23T09:29:01.031Z,63.54
2022-12-23T09:31:35.817Z,63.56
2022-12-23T09:34:05.819Z,63.67
2022-12-23T09:36:33.805Z,64.19
2022-12-23T09:39:01.920Z,63.46
2022-12-23T09:42:07.869Z,63.98
2022-12-23T09:44:50.030Z,64.07
2022-12-23T09:47:23.304Z,63.12
2022-12-23T09:50:04.571Z,62.24
2022-12-23T09:53:02.316Z,62.66
2022-12-23T09:55:36.330Z,63.56
2022-12-23T09:58:43.575Z,64.21
2022-12-23T10:01:44.625Z,64.36
2022-12-23T10:04:39.886Z,64.14
2022-12-23T10:07:39.314Z,63.63
2022-12-23T10:10:26.017Z,63.86
2022-12-23T10:12:56.111Z,63.58
2022-12-23T10:15:43.195Z,63.85
2022-12-23T10:18:48.030Z,63.68
2022-12-23T10:22:26.044Z,63.52
2022-12-23T10:24:58.863Z,64.12
2022-12-23T10:27:39.731Z,64.15
2022-12-23T10:30:51.612Z,64.07
2022-12-23T10:33:23.773Z,63.26
2022-12-23T10:36:14.255Z,62.85
2022-12-23T10:39:08.541Z,62.78
2022-12-23T10:42:01.930Z,62.21
2022-12-23T10:45:10.373Z,61.91
2022-12-23T10:48:08.600Z,61.99
2022-12-23T10:50:54.704Z,61.92
2022-12-23T10:54:19.448Z,61.37
2022-12-23T10:56:48.018Z,61.61
2022-12-23T10:59:23.291Z,61.42
2022-12-23T11:02:19.257Z,60.92
2022-12-23T11:04:49.819Z,61.00
2022-12-23T11:10:23.529Z,61.21
2022-12-23T11:12:54.284Z,61.33
2022-12-23T11:15:40.271Z,60.90
2022-12-23T11:18:12.373Z,60.60
2022-12-23T11:20:44.805Z,60.89
2022-12-23T11:23:30.920Z,61.08
2022-12-23T11:26:07.512Z,61.09
2022-12-23T11:28:49.425Z,61.27
2022-12-23T11:31:30.686Z,61.35
2022-12-23T11:34:05.916Z,61.35
2022-12-23T11:36:35.442Z,61.65
2022-12-23T11:39:23.225Z,61.25
2022-12-23T11:42:12.036Z,61.12
2022-12-23T11:44:51.878Z,60.92
2022-12-23T11:47:29.453Z,60.71
2022-12-23T11:50:01.708Z,60.64
2022-12-23T11:52:32.738Z,61.19
2022-12-23T11:55:06.189Z,61.50
2022-12-23T11:57:42.434Z,61.54
2022-12-23T12:00:29.124Z,61.53
2022-12-23T12:03:00.729Z,62.01
2022-12-23T12:05:46.569Z,62.47
2022-12-23T12:08:21.254Z,62.12
2022-12-23T12:10:53.809Z,61.99
2022-12-23T12:13:49.028Z,61.64
2022-12-23T12:17:07.461Z,61.29
2022-12-23T12:19:45.560Z,61.06
2022-12-23T12:22:43.397Z,60.90
2022-12-23T12:25:26.711Z,60.78
2022-12-23T12:28:02.111Z,60.56
2022-12-23T12:30:40.178Z,60.69
2022-12-23T12:33:21.072Z,61.36
2022-12-23T12:36:07.292Z,61.29
2022-12-23T12:38:40.111Z,61.95
2022-12-23T12:41:28.323Z,62.61
2022-12-23T12:44:09.484Z,62.61
2022-12-23T12:47:28.526Z,62.92
2022-12-23T12:50:11.892Z,63.68
2022-12-23T12:52:43.073Z,63.83
2022-12-23T12:55:28.049Z,63.70
2022-12-23T12:57:55.903Z,63.30
2022-12-23T13:00:25.306Z,63.18
2022-12-23T13:03:24.817Z,63.37
2022-12-23T13:06:05.009Z,64.38
2022-12-23T13:08:39.855Z,64.31
2022-12-23T13:11:28.764Z,60.48
2022-12-23T13:14:57.830Z,61.20
2022-12-23T13:18:03.531Z,60.61
2022-12-23T13:20:52.505Z,60.27
2022-12-23T13:23:44.977Z,57.39
2022-12-23T13:26:38.248Z,57.26
2022-12-23T13:29:57.972Z,58.96
2022-12-23T13:33:13.368Z,65.47
2022-12-23T13:36:32.136Z,64.72
2022-12-23T13:39:57.057Z,63.20
2022-12-23T13:42:44.052Z,61.84
2022-12-23T13:45:18.196Z,60.80
2022-12-23T13:48:08.974Z,59.84
2022-12-23T13:50:50.883Z,57.93
2022-12-23T13:53:33.748Z,59.07
2022-12-23T13:56:33.832Z,63.28
2022-12-23T13:59:02.007Z,64.57
2022-12-23T14:01:49.809Z,63.53
2022-12-23T14:04:58.062Z,62.30
2022-12-23T14:07:28.549Z,61.86
2022-12-23T14:10:09.452Z,61.90
2022-12-23T14:12:42.370Z,62.04
2022-12-23T14:15:33.581Z,61.49
2022-12-23T14:18:16.717Z,60.84
2022-12-23T14:21:08.593Z,60.82
2022-12-23T14:24:00.874Z,60.48
2022-12-23T14:27:22.126Z,60.06
2022-12-23T14:30:14.455Z,59.84
2022-12-23T14:32:48.442Z,57.63
2022-12-23T14:35:48.015Z,58.94
2022-12-23T14:38:16.021Z,61.64
2022-12-23T14:40:50.863Z,66.26
2022-12-23T14:43:56.362Z,67.22
2022-12-23T14:46:36.141Z,65.53
2022-12-23T14:49:40.955Z,64.77
2022-12-23T14:52:48.288Z,63.84
2022-12-23T14:55:31.543Z,63.34
2022-12-23T14:58:20.439Z,65.47
2022-12-23T15:01:00.459Z,60.57
2022-12-23T15:03:40.174Z,60.22
2022-12-23T15:06:08.099Z,59.32
2022-12-23T15:08:42.252Z,57.64
2022-12-23T15:11:22.111Z,59.43
2022-12-23T15:13:53.600Z,63.09
2022-12-23T15:16:32.070Z,65.44
2022-12-23T15:19:13.165Z,69.09
2022-12-23T15:21:40.988Z,64.81
2022-12-23T15:24:22.728Z,60.56
2022-12-23T15:27:24.683Z,56.02
2022-12-23T15:29:49.848Z,57.09
2022-12-23T15:32:23.275Z,60.53
2022-12-23T15:34:55.533Z,65.60
2022-12-23T15:37:30.592Z,66.48
2022-12-23T15:40:09.623Z,62.07
2022-12-23T15:42:46.839Z,61.36
2022-12-23T15:45:23.608Z,61.40
2022-12-23T15:47:51.850Z,61.87
2022-12-23T15:50:20.779Z,61.91
2022-12-23T15:52:50.805Z,62.52
2022-12-23T15:55:31.172Z,61.30
2022-12-23T15:58:02.959Z,59.82
2022-12-23T16:00:41.107Z,60.11
2022-12-23T16:03:42.273Z,61.18
2022-12-23T16:06:18.925Z,61.93
2022-12-23T16:08:57.950Z,62.10
2022-12-23T16:11:50.464Z,62.75
2022-12-23T16:14:31.190Z,62.45
2022-12-23T16:17:09.415Z,62.75
2022-12-23T16:19:56.193Z,63.25
2022-12-23T16:22:35.716Z,63.43
2022-12-23T16:25:20.840Z,63.25
2022-12-23T16:28:01.445Z,63.25
2022-12-23T16:30:34.848Z,63.64
2022-12-23T16:33:28.151Z,64.75
2022-12-23T16:35:56.714Z,62.34
2022-12-23T16:38:27.086Z,62.18
2022-12-23T16:40:57.285Z,63.57
2022-12-23T16:43:25.580Z,62.61
2022-12-23T16:45:58.415Z,62.02
2022-12-23T16:48:38.411Z,61.60
2022-12-23T16:51:12.782Z,61.46
2022-12-23T16:53:40.945Z,61.30
2022-12-23T16:56:14.626Z,60.68
2022-12-23T16:58:43.413Z,60.31
2022-12-23T17:01:21.109Z,60.03
2022-12-23T17:03:50.083Z,59.97
2022-12-23T17:06:20.284Z,57.95
2022-12-23T17:08:49.592Z,57.01
2022-12-23T17:11:26.300Z,59.21
2022-12-23T17:14:01.367Z,65.74
2022-12-23T17:16:32.242Z,65.53
2022-12-23T17:19:00.371Z,62.91
2022-12-23T17:21:36.876Z,62.15
2022-12-23T17:24:10.631Z,60.73
2022-12-23T17:26:38.732Z,57.98
2022-12-23T17:29:07.301Z,58.89
2022-12-23T17:31:35.349Z,61.35
2022-12-23T17:34:03.441Z,65.61
2022-12-23T17:36:31.373Z,66.10
2022-12-23T17:38:59.392Z,63.97
2022-12-23T17:41:31.285Z,61.94
2022-12-23T17:44:00.149Z,61.16
2022-12-23T17:46:29.146Z,60.63
2022-12-23T17:48:59.252Z,60.35
2022-12-23T17:51:27.615Z,58.58
2022-12-23T17:53:58.301Z,57.35
2022-12-23T17:56:28.920Z,58.61
2022-12-23T17:58:56.720Z,62.34
2022-12-23T18:01:29.907Z,64.89
2022-12-23T18:04:00.009Z,65.77
2022-12-23T18:06:29.506Z,64.73
2022-12-23T18:08:57.953Z,63.22
2022-12-23T18:11:42.019Z,61.92
2022-12-23T18:14:18.661Z,60.64
2022-12-23T18:16:46.813Z,60.34
2022-12-23T18:19:21.360Z,60.10
2022-12-23T18:21:50.928Z,60.41
2022-12-23T18:24:19.852Z,60.25
2022-12-23T18:26:50.989Z,57.08
2022-12-23T18:29:18.844Z,56.34
2022-12-23T18:31:51.490Z,58.21
2022-12-23T18:34:21.190Z,59.88
2022-12-23T18:36:51.987Z,65.93
2022-12-23T18:39:20.493Z,67.15
2022-12-23T18:41:48.620Z,63.89
2022-12-23T18:44:21.021Z,62.34
2022-12-23T18:46:50.457Z,61.35
2022-12-23T18:49:18.716Z,57.73
2022-12-23T18:51:47.250Z,56.51
2022-12-23T18:54:16.937Z,58.02
2022-12-23T18:56:45.132Z,59.50
2022-12-23T18:59:27.423Z,65.07
2022-12-23T19:01:58.070Z,68.45
2022-12-23T19:04:28.289Z,63.68
2022-12-23T19:06:57.491Z,58.23
2022-12-23T19:09:25.825Z,55.91
2022-12-23T19:11:54.380Z,57.36
2022-12-23T19:14:23.237Z,58.81
2022-12-23T19:16:52.541Z,63.08
2022-12-23T19:19:23.818Z,66.06
2022-12-23T19:21:56.073Z,64.95
2022-12-23T19:24:24.082Z,62.77
2022-12-23T19:26:52.490Z,60.86
2022-12-23T19:29:21.708Z,57.91
2022-12-23T19:31:50.311Z,57.64
2022-12-23T19:34:18.098Z,58.27
2022-12-23T19:36:46.047Z,60.41
2022-12-23T19:39:16.888Z,64.58
2022-12-23T19:41:45.507Z,67.02
2022-12-23T19:44:14.324Z,65.43
2022-12-23T19:46:42.795Z,63.75
2022-12-23T19:49:19.132Z,60.78
2022-12-23T19:51:48.677Z,56.11
2022-12-23T19:54:18.022Z,54.60
2022-12-23T19:56:46.230Z,55.80
2022-12-23T19:59:14.079Z,56.57
2022-12-23T20:01:42.157Z,57.49
2022-12-23T20:04:10.973Z,58.72
2022-12-23T20:06:43.511Z,59.29
2022-12-23T20:09:14.519Z,64.63
2022-12-23T20:11:46.409Z,68.38
2022-12-23T20:14:21.509Z,65.19
2022-12-23T20:16:50.182Z,61.50
2022-12-23T20:19:46.013Z,55.90
2022-12-23T20:22:14.395Z,53.48
2022-12-23T20:24:42.250Z,54.30
2022-12-23T20:27:12.555Z,55.41
2022-12-23T20:29:41.844Z,56.37
2022-12-23T20:32:10.224Z,58.73
2022-12-23T20:34:39.924Z,63.01
2022-12-23T20:37:08.391Z,67.13
2022-12-23T20:39:36.251Z,65.27
2022-12-23T20:42:05.305Z,61.50
2022-12-23T20:44:35.571Z,56.23
2022-12-23T20:47:06.606Z,53.98
2022-12-23T20:49:34.486Z,54.53
2022-12-23T20:52:02.285Z,55.78
2022-12-23T20:54:33.633Z,57.40
2022-12-23T20:57:02.740Z,58.19
2022-12-23T20:59:30.705Z,59.78
2022-12-23T21:01:59.472Z,64.64
2022-12-23T21:04:27.700Z,68.65
2022-12-23T21:06:55.699Z,66.67
2022-12-23T21:09:23.854Z,64.85
2022-12-23T21:11:51.715Z,61.82
2022-12-23T21:14:19.568Z,54.90
2022-12-23T21:16:48.028Z,52.47
2022-12-23T21:19:22.722Z,53.39
2022-12-23T21:21:52.499Z,55.23
2022-12-23T21:24:21.267Z,57.57
2022-12-23T21:26:56.289Z,59.56
2022-12-23T21:29:26.382Z,65.46
2022-12-23T21:31:55.272Z,69.52
2022-12-23T21:34:23.946Z,66.21
2022-12-23T21:36:51.774Z,63.94
2022-12-23T21:39:20.081Z,62.51
2022-12-23T21:41:51.699Z,61.35
2022-12-23T21:44:19.691Z,62.30
2022-12-23T21:46:51.027Z,60.18
2022-12-23T21:49:20.507Z,57.52
2022-12-23T21:51:48.513Z,56.62
2022-12-23T21:54:16.376Z,58.25
2022-12-23T21:56:44.361Z,59.50
2022-12-23T21:59:14.894Z,64.06
2022-12-23T22:01:44.145Z,68.29
2022-12-23T22:04:12.523Z,67.21
2022-12-23T22:06:46.638Z,65.11
2022-12-23T22:09:19.565Z,63.59
2022-12-23T22:11:48.326Z,63.55
2022-12-23T22:14:19.496Z,64.07
2022-12-23T22:16:47.395Z,62.70
2022-12-23T22:19:15.651Z,61.70
2022-12-23T22:21:43.690Z,58.56
2022-12-23T22:24:11.755Z,56.25
2022-12-23T22:26:41.092Z,57.58
2022-12-23T22:29:11.376Z,59.45
2022-12-23T22:31:47.289Z,64.84
2022-12-23T22:34:21.265Z,67.85
2022-12-23T22:36:50.224Z,66.32
2022-12-23T22:39:21.637Z,64.74
2022-12-23T22:41:51.918Z,63.60
2022-12-23T22:44:21.199Z,62.93
2022-12-23T22:46:49.853Z,62.61
2022-12-23T22:49:18.060Z,62.32
2022-12-23T22:51:48.861Z,61.47
2022-12-23T22:54:17.041Z,61.40
2022-12-23T22:56:46.063Z,61.24
2022-12-23T22:59:23.714Z,61.10
2022-12-23T23:01:54.530Z,60.55
2022-12-23T23:04:22.910Z,60.08
2022-12-23T23:06:50.772Z,60.17
2022-12-23T23:09:22.048Z,59.86
2022-12-23T23:11:50.900Z,57.38
2022-12-23T23:14:20.500Z,56.29
2022-12-23T23:16:48.836Z,57.81
2022-12-23T23:19:20.459Z,59.33
2022-12-23T23:21:49.009Z,63.50
2022-12-23T23:24:16.880Z,66.99
2022-12-23T23:26:44.815Z,65.32
2022-12-23T23:29:12.644Z,63.59
2022-12-23T23:31:42.322Z,62.44
2022-12-23T23:34:12.826Z,61.87
2022-12-23T23:36:41.808Z,61.28
2022-12-23T23:39:12.761Z,58.55
2022-12-23T23:41:41.894Z,55.92
2022-12-23T23:44:11.009Z,57.76
2022-12-23T23:46:39.922Z,60.35
2022-12-23T23:49:07.731Z,65.01
2022-12-23T23:51:35.593Z,67.96
2022-12-23T23:54:03.559Z,67.11
2022-12-23T23:56:37.842Z,65.26
2022-12-23T23:59:08.955Z,64.05
